Beaufort, NC

12:22 AM EDT on September 18, 2014 (GMT -0400)
Wards Creek | Change Station
CLOSE
Current Station
Personal Weather Station
Location: Otway, NC
Elevation: 10 ft
Nearby Weather Stations

Elev 10 ft 34.79 °N, 76.56 °W | Updated 5 days ago

Rain
Rain
68 °F
Feels Like 68 °F
N
7
Wind Variable Wind from NNE
Gusts 7 mph

Today
High -- | Low -- °F
--% Chance of Precip.
Yesterday
High -- | Low -- °F
Precip. -- in
6:51 AM 7:08 PM
Waning Crescent, 30% visible
Pressure 29.92 in
Visibility 10.0 miles
Clouds Clear
Dew Point 66 °F
Humidity 93%
Rainfall 2.30 in
Snow Depth Not available.
UV 0 out of 12
Pollen 5.80 out of 12
Air Quality Not available.
Flu Activity Not available.
METAR KMRH 180358Z AUTO 05005KT 10SM CLR 22/19 A2992 RMK AO2 SLP130 T02170189 TSNO

More Conditions Fewer Conditions

Pressure 29.92 in
Visibility 10.0 miles
Clouds Clear
Dew Point 66 °F
Humidity 93%
Rainfall 2.30 in
Snow Depth Not available.
UV 0 out of 12
Pollen 5.80 out of 12
Air Quality Not available.
Flu Activity Not available.
METAR KMRH 180358Z AUTO 05005KT 10SM CLR 22/19 A2992 RMK AO2 SLP130 T02170189 TSNO

More Conditions Fewer Conditions

10-Day Weather Forecast

Almanac

Astronomy

Sep. 18, 2014 Rise Set
Actual Time 6:51 AM EDT 7:08 PM EDT
Civil Twilight 6:26 AM EDT 7:34 PM EDT
Nautical Twilight 5:56 AM EDT 8:03 PM EDT
Astronomical Twilight 5:26 AM EDT 8:33 PM EDT
Moon 1:50 AM EDT 3:49 PM EDT
Length of Visible Light 13h 07m
Length of Day
12h 17m
Tomorrow will be 2m 9s shorter.
Waning Crescent, 30% of the Moon is Illuminated
Today
Waning Crescent
Sep 24
New
Oct 1
First Quarter
Oct 8
Full
Oct 15
Last Quarter

Yesterday's Extremes

State Highs State Lows

Community

WunderPhotos

Upload Photos

1,754,292 photos uploaded!

Nearby

Snow Depth

Station Depth Elevation
No new snow has been reported.

Earthquake Activity

City Distance Mag. Time & Date
No recent earthquake activity has been reported nearby.
Minimum magnitude displayed is 2.5.

Coastal Water Temperatures

Place Temperature
Beaufort, NC 80.1 °F
Hatteras, NC 78.1 °F
Oregon Inlet Marina, NC 75.9 °F
Duck Pier, NC 75.9 °F
Johnny Mercer Pier, Wrightsville Beach, NC 82.9 °F

Nearby Weather Stations